Tiempo atmosférico en la estación meteorológica de Andorra, Teruel (762 m.)



Fecha
DESCASC
Temp. máxima en grados centígrados (hora)
DESCASC
Temp. mínima en grados centígrados (hora)
DESCASC
Temp. media en grados centígrados
DESCASC
Racha de viento máxima en m/sg (hora)
DESCASC
Velocidad máxima media en intervalos de 10 minutos(hora)
DESCASC
Precipitaciones diarias en mm
DESCASC
Precipitaciones de 00:00 a 06:00 en mm
DESCASC
Precipitaciones de 06:00 a 12:00 en mm
DESCASC
Precipitaciones de 12:00 a 18:00 en mm
DESCASC
Precipitaciones de 18:00 a 24:00 en mm
DESCASC
16-06-2019 26.6 (16:50) 13 (06:00) 19.8 13.06 (18:10) 8.89 (17:10) 0 0 0 0 0
15-06-2019 24.7 (16:20) 10.7 (07:00) 17.7 11.67 (01:20) 9.44 (01:20) 0 0 0 0 0
14-06-2019 25.1 (18:20) 12.6 (06:30) 18.9 10.28 (19:50) 7.78 (19:50) 0 0 0 0 0
13-06-2019 23.9 (15:30) 12.3 (00:00) 18.1 14.72 (14:30) 10.56 (16:20) 0 0 0 0 0
12-06-2019 19.8 (16:20) 5.6 (00:00) 12.7 14.72 (18:30) 10.56 (18:30) 0 0 0 0 0
11-06-2019 15.5 (19:40) 8.8 (00:00) 12.2 12.78 (18:20) 9.44 (18:20) 0 0 0 0 0
10-06-2019 22 (16:20) 10 (00:00) 16 12.5 (01:20) 9.72 (01:20) 0 0 0 0 0
09-06-2019 26.2 (17:30) 14.1 (00:00) 20.2 15.56 (22:40) 11.11 (22:40) 0 0 0 0 0
08-06-2019 22.2 (16:10) 10 (00:00) 16.1 16.67 (15:10) 11.67 (15:20) 0 0 0 0 0
07-06-2019 22.2 (16:50) 12.7 (00:00) 17.5 15.83 (12:40) 12.78 (12:50) 0 0 0 0 0
06-06-2019 23.7 (15:40) 8.4 (00:00) 16.1 16.67 (18:50) 10.56 (19:40) 0 0 0 0 0
05-06-2019 22.6 (00:00) 11.4 (00:00) 17 18.61 (14:30) 13.06 (13:40) 1 0 0 1 0
04-06-2019 31.4 (18:20) 18.8 (00:00) 25.1 15.83 (18:40) 11.94 (18:30) 0 0 0 0 0
03-06-2019 28.1 (13:30) 17.8 (00:00) 22.9 13.89 (15:30) 8.06 (15:30) 0 0 0 0 0
02-06-2019 29.9 (16:40) 16.6 (00:00) 23.3 10.28 (18:50) 7.22 (18:20) 0 0 0 0 0
01-06-2019 28.1 (16:30) 14.9 (00:00) 21.5 12.78 (19:30) 7.78 (19:30) 0 0 0 0 0
31-05-2019 26.2 (15:30) 12.5 (00:00) 19.4 8.06 (18:50) 6.39 (00:40) 0 0 0 0 0
30-05-2019 25.3 (17:50) 9.6 (00:00) 17.4 9.17 (02:10) 6.67 (01:20) 0 0 0 0 0
29-05-2019 18.8 (18:00) 8.1 (00:00) 13.4 23.61 (01:10) 17.22 (01:00) 0 0 0 0 0
28-05-2019 17.4 (16:20) 8.2 (00:00) 12.8 23.33 (18:10) 17.5 (23:30) 0 0 0 0 0
27-05-2019 22.5 (17:00) 8.8 (00:00) 15.7 16.11 (20:00) 11.94 (19:30) 0 0 0 0 0
26-05-2019 18.9 (16:40) 7.1 (00:00) 13 13.61 (14:00) 10 (21:40) 0 0 0 0 0
25-05-2019 18.6 (16:30) 9.4 (00:00) 14 16.11 (07:40) 12.22 (20:20) 0 0 0 0 0
24-05-2019 17.4 (00:00) 10.1 (00:00) 13.8 15.28 (23:10) 10.83 (22:40) 15.6 1 10.6 2.2 1.8
23-05-2019 25.2 (13:40) 13.8 (00:00) 19.5 15.83 (23:00) 12.78 (23:00) 0.4 0 0 0 0.4
22-05-2019 24.4 (16:20) 10.2 (00:00) 17.3 10.83 (15:40) 6.67 (01:00) 0 0 0 0 0
21-05-2019 21.1 (15:50) 8.9 (05:30) 15 8.61 (16:30) 5.83 (02:00) 0 0 0 0 0

Gráficas

Temp. máximas Temp. mínimas Temp. medias Precipitaciones Rachas de viento máximas Velocidades máximas media en intervalos de 10 minutos

Datos horarios

Fecha y hora oficial Temperatura (ºC) Velocidad del viento (km/h) Dirección del viento Racha (km/h) Dirección de racha Precipitación (mm) Presión (hPa) Tendencia (hPa) Humedad (%)
2019-06-19 23:00:00 23.4 16 Sur 21 Sur 0 -- -- 39
2019-06-19 22:00:00 24.9 7 Sur 15 Sur 0 -- -- 37
2019-06-19 21:00:00 26.3 8 Sudeste 27 Este 0 -- -- 34
2019-06-19 20:00:00 27.4 21 Nordeste 30 Este 0 -- -- 34
2019-06-19 19:00:00 27.6 24 Nordeste 38 Nordeste 0 -- -- 33
2019-06-19 18:00:00 28.7 17 Nordeste 38 Nordeste 0 -- -- 31
2019-06-19 17:00:00 29.5 13 Noroeste 28 Nordeste 0 -- -- 30
2019-06-19 16:00:00 28.2 17 Nordeste 35 Nordeste 0 -- -- 32
2019-06-19 15:00:00 27.5 21 Nordeste -- -- -- -- -- 34
2019-06-19 14:00:00 27.4 27 Nordeste 37 Nordeste 0 -- -- 34
2019-06-19 13:00:00 27.1 15 Oeste 29 Oeste 0 -- -- 34
2019-06-19 12:00:00 25.5 17 Oeste -- -- -- -- -- 36
2019-06-19 11:00:00 -- -- -- -- -- -- -- -- --
2019-06-19 10:00:00 -- -- -- -- -- -- -- -- --
2019-06-19 09:00:00 -- -- -- -- -- -- -- -- --
2019-06-19 08:00:00 -- -- -- -- -- -- -- -- --
2019-06-19 07:00:00 -- -- -- -- -- -- -- -- --
2019-06-19 06:00:00 -- -- -- -- -- -- -- -- --
2019-06-19 05:00:00 -- -- -- -- -- -- -- -- --
2019-06-19 04:00:00 -- -- -- -- -- -- -- -- --
2019-06-19 03:00:00 -- -- -- -- -- -- -- -- --
2019-06-19 02:00:00 -- -- -- -- -- -- -- -- --
2019-06-19 01:00:00 -- -- -- -- -- -- -- -- --
2019-06-19 00:00:00 -- -- -- -- -- -- -- -- --
2019-06-18 23:00:00 -- -- -- -- -- -- -- -- --
2019-06-18 22:00:00 -- -- -- -- -- -- -- -- --
2019-06-18 21:00:00 -- -- -- -- -- -- -- -- --
2019-06-18 20:00:00 -- -- -- -- -- -- -- -- --
2019-06-18 19:00:00 31.7 22 Sudoeste 40 Sudoeste 0 -- -- 20
2019-06-18 18:00:00 32.5 22 Sudoeste 41 Este 0 -- -- 22
2019-06-18 17:00:00 30.6 18 Sudeste 45 Este 0 -- -- 23
2019-06-18 16:00:00 31.2 37 Este 53 Este 0 -- -- 22
2019-06-18 15:00:00 30.6 23 Nordeste 34 Nordeste 0 -- -- 28
2019-06-18 14:00:00 29.4 22 Nordeste 33 Nordeste 0 -- -- 30
2019-06-18 13:00:00 29.5 20 Nordeste 33 Nordeste 0 -- -- 26
2019-06-18 12:00:00 29.8 10 Nordeste 23 Este 0 -- -- 24
2019-06-18 11:00:00 29.1 5 Nordeste 14 Este 0 -- -- 26
2019-06-18 10:00:00 27 5 Sudeste 13 Este 0 -- -- 29
2019-06-18 09:00:00 22.4 5 Sur 12 Sur 0 -- -- 34
2019-06-18 08:00:00 22 6 Este 9 Nordeste 0 -- -- 35
2019-06-18 07:00:00 21.1 5 Noroeste 10 Sudoeste 0 -- -- 36
2019-06-18 06:00:00 18.9 8 Sudoeste 12 Sudeste 0 -- -- 39
2019-06-18 05:00:00 20.5 5 Sudeste 12 Sudoeste 0 -- -- 38
2019-06-18 04:00:00 19.2 9 Sudoeste 21 Sudoeste 0 -- -- 41
2019-06-18 03:00:00 19 12 Sudoeste 22 Sur 0 -- -- 41
2019-06-18 02:00:00 21.1 14 Sur 26 Sur 0 -- -- 37
2019-06-18 01:00:00 21.9 14 Sur 29 Sur 0 -- -- 37
2019-06-18 00:00:00 22 18 Sur 31 Sur 0 -- -- 37
2019-06-17 23:00:00 22.2 17 Sudeste 37 Sur 0 -- -- 39
2019-06-17 22:00:00 23.2 17 Sudeste 32 Sur 0 -- -- 38
2019-06-17 21:00:00 24.6 21 Este 34 Sudeste 0 -- -- 39
2019-06-17 20:00:00 26.5 20 Este 46 Este 0 -- -- 38
2019-06-17 19:00:00 27.8 22 Este 40 Este 0 -- -- 36
2019-06-17 18:00:00 28.3 23 Este 42 Este 0 -- -- 35
2019-06-17 17:00:00 29.2 19 Este 38 Este 0 -- -- 28
2019-06-17 16:00:00 29.7 10 Nordeste 31 Este 0 -- -- 27
2019-06-17 15:00:00 29.3 22 Nordeste 33 Este 0 -- -- 28
2019-06-17 14:00:00 27.8 18 Nordeste 26 Nordeste 0 -- -- 30
2019-06-17 13:00:00 26.9 12 Nordeste 24 Nordeste 0 -- -- 33
2019-06-17 12:00:00 25.9 11 Nordeste 20 Nordeste 0 -- -- 37
2019-06-17 11:00:00 25.3 12 Nordeste 21 Nordeste 0 -- -- 39
2019-06-17 10:00:00 23.6 9 Este 14 Nordeste 0 -- -- 44
2019-06-17 09:00:00 20.1 4 Oeste 17 Oeste 0 -- -- 52
2019-06-17 08:00:00 17.2 14 Oeste 18 Oeste 0 -- -- 59
2019-06-17 07:00:00 17.1 12 Noroeste 24 Oeste 0 -- -- 58
2019-06-17 06:00:00 17.2 17 Oeste 22 Oeste 0 -- -- 58
2019-06-17 05:00:00 17.6 16 Oeste 20 Oeste 0 -- -- 56
2019-06-17 04:00:00 18.6 15 Oeste 23 Sudoeste 0 -- -- 53
2019-06-17 03:00:00 19.3 13 Sudoeste 19 Sudoeste 0 -- -- 52
2019-06-17 02:00:00 19.7 11 Sudoeste 13 Sudoeste 0 -- -- 52
2019-06-17 01:00:00 19.6 11 Sudoeste 15 Sur 0 -- -- 56
2019-06-17 00:00:00 19.4 11 Sudoeste 13 Sudoeste 0 -- -- 56
2019-06-16 23:00:00 21 10 Sur 18 Sur 0 -- -- 51
2019-06-16 22:00:00 22 12 Sur 21 Este 0 -- -- 48
2019-06-16 21:00:00 23.2 10 Este 35 Este 0 -- -- 44
2019-06-16 20:00:00 24.1 23 Este 37 Nordeste 0 -- -- 42
2019-06-16 19:00:00 25 28 Este 47 Este 0 -- -- 41
2019-06-16 18:00:00 25.6 28 Este 45 Este 0 -- -- 40
2019-06-16 17:00:00 26.2 27 Este 43 Nordeste 0 -- -- 33
2019-06-16 16:00:00 25.9 25 Este 38 Este 0 -- -- 33
2019-06-16 15:00:00 24.8 21 Este 36 Nordeste 0 -- -- 34
2019-06-16 14:00:00 23.9 16 Este 32 Este 0 -- -- 36
2019-06-16 13:00:00 22.8 16 Nordeste 28 Nordeste 0 -- -- 37
2019-06-16 12:00:00 21.4 15 Este 24 Este 0 -- -- 39
2019-06-16 11:00:00 19.9 12 Este 20 Este 0 -- -- 41
2019-06-16 10:00:00 18.1 9 Este 21 Nordeste 0 -- -- 46
2019-06-16 09:00:00 16 9 Este 14 Este 0 -- -- 52
2019-06-16 08:00:00 14.8 9 Este 11 Nordeste 0 -- -- 54
2019-06-16 07:00:00 14 4 Nordeste 10 Oeste 0 -- -- 56
2019-06-16 06:00:00 13 10 Oeste 15 Oeste 0 -- -- 60
2019-06-16 05:00:00 13.3 12 Oeste 15 Oeste 0 -- -- 58
2019-06-16 04:00:00 13.8 13 Oeste 16 Oeste 0 -- -- 57
2019-06-16 03:00:00 14.6 12 Oeste 18 Oeste 0 -- -- 54
2019-06-16 02:00:00 15.7 14 Oeste 22 Noroeste 0 -- -- 51
2019-06-16 01:00:00 16.6 17 Noroeste 27 Noroeste 0 -- -- 48
2019-06-16 00:00:00 17.6 21 Noroeste 29 Noroeste 0 -- -- 45
2019-06-15 23:00:00 18.5 18 Noroeste 27 Noroeste 0 -- -- 42
2019-06-15 22:00:00 19.7 13 Noroeste 20 Nordeste 0 -- -- 40
2019-06-15 21:00:00 20.8 14 Nordeste 24 Nordeste 0 -- -- 36
2019-06-15 20:00:00 21.5 19 Nordeste 34 Nordeste 0 -- -- 35
2019-06-15 19:00:00 22.3 17 Norte 34 Nordeste 0 -- -- 34
2019-06-15 18:00:00 23.2 15 Nordeste 32 Nordeste 0 -- -- 31
2019-06-15 17:00:00 23.3 22 Nordeste 34 Norte 0 -- -- 31
2019-06-15 16:00:00 24.5 20 Oeste 38 Noroeste 0 -- -- 29
2019-06-15 15:00:00 23.2 9 Norte 24 Noroeste 0 -- -- 33
2019-06-15 14:00:00 22.3 10 Noroeste 26 Oeste 0 -- -- 32
2019-06-15 13:00:00 21.6 9 Nordeste 28 Este 0 -- -- 38
2019-06-15 12:00:00 19.5 5 Noroeste 24 Oeste 0 -- -- 42
2019-06-15 11:00:00 18.1 15 Oeste 24 Oeste 0 -- -- 46
2019-06-15 10:00:00 16.1 19 Oeste 28 Oeste 0 -- -- 52
2019-06-15 09:00:00 14.3 9 Noroeste 32 Oeste 0 -- -- 66
2019-06-15 08:00:00 12.1 24 Oeste 30 Oeste 0 -- -- 77
2019-06-15 07:00:00 10.7 22 Oeste 28 Oeste 0 -- -- 80
2019-06-15 06:00:00 11.8 23 Oeste 40 Noroeste 0 -- -- 76
2019-06-15 05:00:00 12.4 30 Noroeste 41 Noroeste 0 -- -- 75
2019-06-15 04:00:00 14.9 18 Oeste 28 Oeste 0 -- -- 39
2019-06-15 03:00:00 16.8 23 Oeste 35 Oeste 0 -- -- 35
2019-06-15 02:00:00 18.2 24 Oeste 42 Oeste 0 -- -- 32
2019-06-15 01:00:00 19.1 29 Oeste 37 Oeste 0 -- -- 31
2019-06-15 00:00:00 19.4 21 Oeste 23 Oeste 0 -- -- 30
2019-06-14 23:00:00 20.2 21 Oeste 32 Sudoeste 0 -- -- 44
2019-06-14 22:00:00 22.5 6 Nordeste 21 Nordeste 0 -- -- 50
2019-06-14 21:00:00 23.7 16 Nordeste 28 Este 0 -- -- 46
2019-06-14 20:00:00 24.7 25 Este 37 Este 0 -- -- 42
2019-06-14 19:00:00 24.8 25 Este 33 Este 0 -- -- 41
2019-06-14 18:00:00 25 18 Este 32 Este 0 -- -- 41
2019-06-14 17:00:00 24.4 22 Este 32 Nordeste 0 -- -- 42
2019-06-14 16:00:00 24 11 Este 30 Nordeste 0 -- -- 42
2019-06-14 15:00:00 23.2 16 Nordeste 32 Nordeste 0 -- -- 43
2019-06-14 14:00:00 22.8 17 Nordeste 26 Nordeste 0 -- -- 44
2019-06-14 13:00:00 21.5 7 Norte 16 Norte 0 -- -- 48
2019-06-14 12:00:00 20.8 9 Noroeste 24 Oeste 0 -- -- 50
2019-06-14 11:00:00 19.7 13 Oeste 19 Oeste 0 -- -- 51
2019-06-14 10:00:00 17.4 6 Este 17 Este 0 -- -- 51
2019-06-14 09:00:00 14.5 4 Norte 19 Oeste 0 -- -- 58
2019-06-14 08:00:00 13.6 15 Oeste 32 Sudoeste 0 -- -- 59
2019-06-14 07:00:00 13 12 Sudoeste 22 Oeste 0 -- -- 60
2019-06-14 06:00:00 12.7 12 Oeste 21 Oeste 0 -- -- 60
2019-06-14 05:00:00 13.4 5 Oeste 14 Oeste 0 -- -- 57
2019-06-14 04:00:00 13.3 4 Nordeste 17 Nordeste 0 -- -- 52
2019-06-14 03:00:00 14.8 16 Nordeste 19 Nordeste 0 -- -- 68
2019-06-14 02:00:00 16.4 13 Sudoeste 24 Sur 0 -- -- 69
2019-06-14 01:00:00 17.1 16 Sur 25 Sur 0 -- -- 66
2019-06-14 00:00:00 16.7 18 Sur 29 Sur 0 -- -- 71
2019-06-13 23:00:00 17.6 22 Sur 31 Sur 0 -- -- 69
2019-06-13 22:00:00 18.2 10 Sudeste 33 Sudeste 0 -- -- 66
2019-06-13 21:00:00 19.3 19 Sudeste 30 Este 0 -- -- 62
2019-06-13 20:00:00 21.1 16 Este 43 Este 0 -- -- 57
2019-06-13 19:00:00 21.5 35 Este 42 Este 0 -- -- 55
2019-06-13 18:00:00 21.2 30 Este 45 Este 0 -- -- 56
2019-06-13 17:00:00 21.6 28 Este 50 Este 0 -- -- 53
2019-06-13 16:00:00 23.6 24 Este 48 Este 0 -- -- 42
2019-06-13 15:00:00 23.3 28 Este 53 Este 0 -- -- 41
2019-06-13 14:00:00 22.7 23 Este 45 Este 0 -- -- 42
2019-06-13 13:00:00 21.2 32 Este 44 Este 0 -- -- 47
2019-06-13 12:00:00 20.2 19 Este 37 Este 0 -- -- 53
2019-06-13 11:00:00 19.3 16 Nordeste 24 Nordeste 0 -- -- 53
2019-06-13 10:00:00 18.3 11 Nordeste 24 Nordeste 0 -- -- 54
2019-06-13 09:00:00 17.2 3 Sur 19 Este 0 -- -- 59
2019-06-13 08:00:00 14.4 12 Este 18 Este 0 -- -- 69
2019-06-13 07:00:00 13.7 7 Este 17 Sudeste 0 -- -- 65
2019-06-13 06:00:00 13.1 8 Sudeste 15 Sudeste 0 -- -- 62
2019-06-13 05:00:00 12.8 8 Sudeste 19 Sudeste 0 -- -- 59
2019-06-13 04:00:00 12.9 12 Sudeste 17 Sudeste 0 -- -- 50
2019-06-13 03:00:00 12.3 9 Este 17 Sudeste 0 -- -- 44
2019-06-13 02:00:00 13.3 9 Sudeste 28 Sudeste 0 -- -- 41
2019-06-13 01:00:00 13.4 20 Sur 37 Sur 0 -- -- 42
2019-06-13 00:00:00 13.8 25 Sur 40 Sudeste 0 -- -- 45
2019-06-12 23:00:00 14.1 16 Sudeste 41 Sudeste 0 -- -- 48
2019-06-12 22:00:00 14.7 19 Este 42 Este 0 -- -- 51
2019-06-12 21:00:00 16.4 22 Este 43 Este 0 -- -- 52
2019-06-12 20:00:00 18.3 21 Este 40 Este 0 -- -- 48
2019-06-12 19:00:00 18.7 26 Este 53 Este 0 -- -- 45
2019-06-12 18:00:00 19.1 33 Este 51 Nordeste 0 -- -- 32
2019-06-12 17:00:00 19.2 28 Este 50 Este 0 -- -- 32
2019-06-12 16:00:00 19.2 17 Nordeste 35 Este 0 -- -- 34
2019-06-12 15:00:00 18.3 18 Este 32 Nordeste 0 -- -- 35
2019-06-12 14:00:00 17.8 14 Nordeste 31 Este 0 -- -- 37
2019-06-12 13:00:00 16.7 14 Nordeste 28 Este 0 -- -- 41
2019-06-12 12:00:00 15.2 15 Este 24 Este 0 -- -- 46
2019-06-12 11:00:00 14.2 7 Nordeste 18 Nordeste 0 -- -- 50
2019-06-12 10:00:00 12.3 4 Noroeste 11 Noroeste 0 -- -- 56
2019-06-12 09:00:00 10.2 4 Sur 10 Sudoeste 0 -- -- 66
2019-06-12 08:00:00 7.1 8 Sudoeste 12 Oeste 0 -- -- 78
2019-06-12 07:00:00 5.8 10 Oeste 18 Oeste 0 -- -- 82
2019-06-12 06:00:00 5.7 17 Oeste 18 Oeste 0 -- -- 83
2019-06-12 05:00:00 5.9 15 Oeste 21 Oeste 0 -- -- 81
2019-06-12 04:00:00 6.3 18 Oeste 21 Oeste 0 -- -- 78
2019-06-12 03:00:00 7 14 Sudoeste 21 Oeste 0 -- -- 76
2019-06-12 02:00:00 7.5 22 Oeste 28 Oeste 0 -- -- 73
2019-06-12 01:00:00 9.1 22 Oeste 32 Oeste 0 -- -- 67
2019-06-12 00:00:00 9.8 22 Noroeste 33 Oeste 0 -- -- 63
2019-06-11 23:00:00 10.6 27 Noroeste 40 Noroeste 0 -- -- 59
2019-06-11 22:00:00 11.8 23 Noroeste 45 Noroeste 0 -- -- 53
2019-06-11 21:00:00 13.7 31 Noroeste 44 Noroeste 0 -- -- 46
2019-06-11 20:00:00 15 29 Noroeste 44 Norte 0 -- -- 42
2019-06-11 19:00:00 14.6 24 Noroeste 46 Oeste 0 -- -- 42
2019-06-11 18:00:00 14.7 27 Noroeste 41 Oeste 0 -- -- 46
2019-06-11 17:00:00 13.5 13 Oeste 31 Oeste 0 -- -- 58
2019-06-11 16:00:00 12.1 19 Oeste 30 Oeste 0 -- -- 66
2019-06-11 15:00:00 9.8 21 Oeste 32 Oeste 0 -- -- 76
2019-06-11 14:00:00 10.1 23 Noroeste 36 Noroeste 0 -- -- 69
2019-06-11 13:00:00 9.4 21 Noroeste 31 Oeste 0 -- -- 74
2019-06-11 12:00:00 9.1 25 Noroeste 37 Noroeste 0 -- -- 74
2019-06-11 11:00:00 9.3 25 Noroeste 38 Noroeste 0 -- -- 72
2019-06-11 10:00:00 9.2 26 Noroeste 35 Noroeste 0 -- -- 72
2019-06-11 09:00:00 9.4 18 Noroeste 27 Noroeste 0 -- -- 70
2019-06-11 08:00:00 9.5 17 Oeste 25 Oeste 0 -- -- 67
2019-06-11 07:00:00 9.5 19 Noroeste 24 Noroeste 0 -- -- 65
2019-06-11 06:00:00 9.9 13 Noroeste 30 Oeste 0 -- -- 61
2019-06-11 05:00:00 10.5 21 Oeste 27 Oeste 0 -- -- 60
2019-06-11 04:00:00 10.7 19 Oeste 23 Oeste 0 -- -- 57
2019-06-11 03:00:00 11 18 Oeste 24 Oeste 0 -- -- 57
2019-06-11 02:00:00 11.3 17 Oeste 26 Oeste 0 -- -- 57
2019-06-11 01:00:00 11.5 17 Oeste 26 Oeste 0 -- -- 58
2019-06-11 00:00:00 12.6 22 Oeste 31 Noroeste 0 -- -- 55
2019-06-10 23:00:00 13.2 17 Noroeste 34 Noroeste 0 -- -- 55
2019-06-10 22:00:00 14.1 28 Noroeste 35 Noroeste 0 -- -- 53
2019-06-10 21:00:00 15.6 26 Noroeste 35 Noroeste 0 -- -- 50
2019-06-10 20:00:00 17.4 26 Noroeste 38 Noroeste 0 -- -- 46
2019-06-10 19:00:00 19.1 19 Norte 36 Noroeste 0 -- -- 43
2019-06-10 18:00:00 21.1 16 Norte 33 Norte 0 -- -- 39
2019-06-10 17:00:00 20.8 20 Norte 36 Noroeste 0 -- -- 41
2019-06-10 16:00:00 21.2 22 Norte 40 Noroeste 0 -- -- 38
2019-06-10 15:00:00 20.8 24 Noroeste 40 Noroeste 0 -- -- 42
2019-06-10 14:00:00 20.3 19 Norte 38 Norte 0 -- -- 45
2019-06-10 13:00:00 19 18 Noroeste 32 Noroeste 0 -- -- 50
2019-06-10 12:00:00 17.1 11 Oeste 28 Oeste 0 -- -- 56
2019-06-10 11:00:00 15.7 19 Oeste 34 Oeste 0 -- -- 61
2019-06-10 10:00:00 13.7 25 Oeste 35 Oeste 0 -- -- 68
2019-06-10 09:00:00 13.1 27 Oeste 37 Oeste 0 -- -- 71
2019-06-10 08:00:00 11 32 Oeste 39 Oeste 0 -- -- 80
2019-06-10 07:00:00 10 30 Oeste 40 Oeste 0 -- -- 83
2019-06-10 06:00:00 10.6 31 Oeste 41 Oeste 0 -- -- 82
2019-06-10 05:00:00 11.4 16 Oeste 29 Oeste 0 -- -- 79
2019-06-10 04:00:00 11.7 23 Oeste 34 Oeste 0 -- -- 77
2019-06-10 03:00:00 12.2 27 Oeste 38 Oeste 0 -- -- 75
2019-06-10 02:00:00 13.1 32 Oeste 45 Oeste 0 -- -- 73
2019-06-10 01:00:00 14.1 32 Oeste 41 Oeste 0 -- -- 70
2019-06-10 00:00:00 16.1 35 Oeste 47 Noroeste 0 -- -- 63
2019-06-09 23:00:00 18.2 35 Noroeste 56 Noroeste 0 -- -- 59
2019-06-09 22:00:00 22.3 10 Sudeste 21 Este 0 -- -- 35
2019-06-09 21:00:00 24.1 11 Nordeste 22 Este 0 -- -- 32
2019-06-09 20:00:00 24.8 13 Este 21 Este 0 -- -- 31
2019-06-09 19:00:00 24.8 12 Este 29 Nordeste 0 -- -- 31
2019-06-09 18:00:00 25.2 17 Nordeste 26 Nordeste 0 -- -- 31
2019-06-09 17:00:00 25.2 18 Nordeste 32 Nordeste 0 -- -- 31
2019-06-09 16:00:00 25.4 15 Nordeste 35 Nordeste 0 -- -- 32
2019-06-09 15:00:00 25.4 15 Nordeste 33 Nordeste 0 -- -- 32
2019-06-09 14:00:00 24.6 19 Nordeste 30 Nordeste 0 -- -- 32
2019-06-09 13:00:00 23.9 13 Nordeste 25 Nordeste 0 -- -- 33
2019-06-09 12:00:00 22.9 12 Este 20 Este 0 -- -- 36
2019-06-09 11:00:00 22.2 8 Este 19 Este 0 -- -- 35
2019-06-09 10:00:00 18.7 8 Este 12 Este 0 -- -- 43
2019-06-09 09:00:00 16.8 5 Oeste 10 Oeste 0 -- -- 48
2019-06-09 08:00:00 14.4 10 Sudoeste 13 Sudoeste 0 -- -- 54
2019-06-09 07:00:00 14.1 6 Oeste 18 Oeste 0 -- -- 53
2019-06-09 06:00:00 15.7 3 Noroeste 15 Este 0 -- -- 42
2019-06-09 05:00:00 16.1 7 Este 24 Sur 0 -- -- 41
2019-06-09 04:00:00 16.9 17 Sur 30 Sur 0 -- -- 38
2019-06-09 03:00:00 15.9 12 Sudeste 26 Este 0 -- -- 42
2019-06-09 02:00:00 15.9 15 Este 25 Este 0 -- -- 43
2019-06-09 01:00:00 16.8 9 Sudeste 27 Sudeste 0 -- -- 42
2019-06-09 00:00:00 17.3 13 Sudeste 35 Sur 0 -- -- 41
2019-06-08 23:00:00 17.5 24 Sur 40 Sur 0 -- -- 42
2019-06-08 22:00:00 17.7 24 Sudeste 41 Sur 0 -- -- 40
2019-06-08 21:00:00 18.3 22 Sudeste 46 Sudeste 0 -- -- 42
2019-06-08 20:00:00 19.8 24 Sudeste 43 Sur 0 -- -- 41
2019-06-08 19:00:00 20.8 30 Sur 55 Sur 0 -- -- 40
2019-06-08 18:00:00 21.3 27 Sudeste 51 Este 0 -- -- 40
2019-06-08 17:00:00 21.8 22 Sudeste 50 Este 0 -- -- 40
2019-06-08 16:00:00 22 25 Este 60 Este 0 -- -- 41
2019-06-08 15:00:00 21.4 30 Este 51 Este 0 -- -- 42
2019-06-08 14:00:00 21.7 28 Este 41 Este 0 -- -- 39
2019-06-08 13:00:00 19.8 25 Este 38 Este 0 -- -- 44
2019-06-08 12:00:00 18.8 20 Este 35 Nordeste 0 -- -- 47
2019-06-08 11:00:00 17.2 19 Este 33 Este 0 -- -- 54
2019-06-08 10:00:00 16.2 22 Este 32 Este 0 -- -- 59
2019-06-08 09:00:00 15.2 8 Este 15 Este 0 -- -- 50
2019-06-08 08:00:00 11.6 8 Sur 12 Sur 0 -- -- 50
2019-06-08 07:00:00 10.5 7 Sur 14 Sur 0 -- -- 50
2019-06-08 06:00:00 10.3 5 Oeste 20 Oeste 0 -- -- 57
2019-06-08 05:00:00 10.3 17 Oeste 21 Oeste 0 -- -- 51
2019-06-08 04:00:00 12.4 10 Oeste 16 Oeste 0 -- -- 44
2019-06-08 03:00:00 14.7 4 Norte 5 Norte 0 -- -- 39
2019-06-08 02:00:00 14.9 3 Oeste 14 Nordeste 0 -- -- 37
2019-06-08 01:00:00 15.6 8 Noroeste 10 Norte 0 -- -- 36
2019-06-08 00:00:00 15.9 8 Noroeste 10 Norte 0 -- -- 34
2019-06-07 23:00:00 16.6 7 Norte 14 Nordeste 0 -- -- 33
2019-06-07 22:00:00 17 11 Nordeste 26 Nordeste 0 -- -- 31
2019-06-07 21:00:00 18.7 12 Norte 28 Noroeste 0 -- -- 30
2019-06-07 20:00:00 19.8 22 Norte 38 Noroeste 0 -- -- 28
2019-06-07 19:00:00 21.6 24 Noroeste 42 Norte 0 -- -- 26
2019-06-07 18:00:00 21.8 24 Norte 44 Noroeste 0 -- -- 27
2019-06-07 17:00:00 22 27 Noroeste 42 Norte 0 -- -- 26
2019-06-07 16:00:00 22 25 Noroeste 39 Oeste 0 -- -- 29
2019-06-07 15:00:00 20.8 21 Noroeste 45 Oeste 0 -- -- 32
2019-06-07 14:00:00 20 28 Noroeste 53 Noroeste 0 -- -- 37
2019-06-07 13:00:00 17.7 45 Oeste 57 Oeste 0 -- -- 46
2019-06-07 12:00:00 16.1 36 Oeste 49 Oeste 0 -- -- 52
2019-06-07 11:00:00 13.7 26 Oeste 41 Oeste 0 -- -- 60
2019-06-07 10:00:00 13.8 30 Oeste 40 Oeste 0 -- -- 61
2019-06-07 09:00:00 14.2 22 Noroeste 30 Oeste 0 -- -- 65
2019-06-07 08:00:00 14.8 11 Sur 21 Sur 0 -- -- 58
2019-06-07 07:00:00 13 10 Sur 18 Sur 0 -- -- 66
2019-06-07 06:00:00 12.8 12 Sur 26 Sur 0 -- -- 76
2019-06-07 05:00:00 14.7 20 Sur 30 Sur 0 -- -- 66
2019-06-07 04:00:00 15 19 Sur 37 Sudeste 0 -- -- 67
2019-06-07 03:00:00 15.3 26 Sur 41 Sur 0 -- -- 67
2019-06-07 02:00:00 15.1 25 Sur 46 Sur 0 -- -- 68
2019-06-07 01:00:00 15.6 24 Sudeste 40 Sudeste 0 -- -- 64
2019-06-07 00:00:00 15.7 17 Sudeste 45 Sur 0 -- -- 63
2019-06-06 23:00:00 16.4 27 Sur 51 Sudeste 0 -- -- 53
2019-06-06 22:00:00 17.4 31 Sur 50 Sur 0 -- -- 44
2019-06-06 21:00:00 18.7 31 Sur 58 Sur 0 -- -- 43
2019-06-06 20:00:00 20 30 Sudeste 59 Sur 0 -- -- 42
2019-06-06 19:00:00 20.9 28 Sudeste 60 Sudeste 0 -- -- 41
2019-06-06 18:00:00 21.4 27 Sudeste 59 Este 0 -- -- 41
2019-06-06 17:00:00 21.5 25 Sur 48 Sur 0 -- -- 42
2019-06-06 16:00:00 23.3 24 Sur 45 Sudoeste 0 -- -- 38
2019-06-06 15:00:00 22.7 28 Oeste 43 Sudoeste 0 -- -- 33
2019-06-06 14:00:00 21.3 27 Este 38 Este 0 -- -- 41
2019-06-06 13:00:00 19.9 22 Este 36 Este 0 -- -- 43
2019-06-06 12:00:00 18.2 21 Este 30 Este 0 -- -- 47
2019-06-06 11:00:00 16.7 20 Este 26 Este 0 -- -- 53
2019-06-06 10:00:00 14.9 13 Nordeste 20 Este 0 -- -- 59
2019-06-06 09:00:00 13.9 9 Nordeste 15 Este 0 -- -- 62
2019-06-06 08:00:00 10 5 Sur 9 Sudoeste 0 -- -- 77
2019-06-06 07:00:00 8.6 9 Oeste 13 Oeste 0 -- -- 81
2019-06-06 06:00:00 8.5 11 Oeste 13 Oeste 0 -- -- 82
2019-06-06 05:00:00 8.9 12 Oeste 13 Oeste 0 -- -- 81
2019-06-06 04:00:00 9.3 10 Oeste 12 Oeste 0 -- -- 79
2019-06-06 03:00:00 9.7 10 Oeste 15 Oeste 0 -- -- 77
2019-06-06 02:00:00 10.2 8 Oeste 16 Noroeste 0 -- -- 74
2019-06-06 01:00:00 10.7 14 Oeste 17 Oeste 0 -- -- 72
2019-06-06 00:00:00 11.5 9 Oeste 26 Noroeste 0 -- -- 67
2019-06-05 23:00:00 12.3 22 Noroeste 29 Oeste 0 -- -- 64
2019-06-05 22:00:00 13.1 23 Noroeste 33 Noroeste 0 -- -- 63
2019-06-05 21:00:00 15.4 25 Noroeste 37 Noroeste 0 -- -- 54
2019-06-05 20:00:00 16.4 23 Noroeste 44 Noroeste 0 -- -- 50
2019-06-05 19:00:00 16.1 26 Noroeste 41 Noroeste 0 -- -- 50
2019-06-05 18:00:00 16.2 27 Noroeste 50 Noroeste 0 -- -- 48
2019-06-05 17:00:00 17.1 29 Noroeste 46 Oeste 0 -- -- 47
2019-06-05 16:00:00 15.4 35 Oeste 51 Noroeste 0 -- -- 56
2019-06-05 15:00:00 14.1 37 Noroeste 67 Oeste 0 -- -- 60
2019-06-05 14:00:00 12.7 45 Oeste 63 Oeste 1 -- -- 72
2019-06-05 13:00:00 15.8 44 Noroeste 58 Norte 0 -- -- 61
2019-06-05 12:00:00 15.5 30 Noroeste 40 Noroeste 0 -- -- 66
2019-06-05 11:00:00 14.6 24 Norte 35 Norte 0 -- -- 71
2019-06-05 10:00:00 14.9 3 Noroeste 15 Oeste 0 -- -- 67
2019-06-05 09:00:00 13.9 9 Oeste 18 Oeste 0 -- -- 71
2019-06-05 08:00:00 12.4 5 Sudoeste 17 Oeste 0 -- -- 76
2019-06-05 07:00:00 11.7 16 Oeste 21 Oeste 0 -- -- 80
2019-06-05 06:00:00 12.3 12 Oeste 20 Oeste 0 -- -- 79
2019-06-05 05:00:00 13.1 18 Oeste 24 Oeste 0 -- -- 77
2019-06-05 04:00:00 14 13 Oeste 15 Oeste 0 -- -- 75
2019-06-05 03:00:00 15.5 7 Oeste 14 Oeste 0 -- -- 69
2019-06-05 02:00:00 16.7 12 Oeste 20 Oeste 0 -- -- 66
2019-06-05 01:00:00 18.3 12 Oeste 34 Norte 0 -- -- 62
2019-06-05 00:00:00 22.6 8 Oeste 30 Sudoeste 0 -- -- 41
2019-06-04 23:00:00 23.7 25 Sudoeste 37 Sur 0 -- -- 34
2019-06-04 22:00:00 23.7 25 Sur 37 Sur 0 -- -- 41
2019-06-04 21:00:00 25.6 29 Sur 48 Sur 0 -- -- 40
2019-06-04 20:00:00 26.6 24 Sudeste 48 Sur 0 -- -- 42
2019-06-04 19:00:00 30.4 35 Sudoeste 57 Sudoeste 0 -- -- 21
2019-06-04 18:00:00 29.7 17 Nordeste 44 Este 0 -- -- 35
2019-06-04 17:00:00 28.7 35 Nordeste 48 Nordeste 0 -- -- 33
2019-06-04 16:00:00 28.4 32 Este 43 Este 0 -- -- 34
2019-06-04 15:00:00 28.9 30 Este 40 Este 0 -- -- 32
2019-06-04 14:00:00 28.5 24 Este 36 Este 0 -- -- 30
2019-06-04 13:00:00 27.6 25 Este -- -- -- -- -- 31
2019-06-04 12:00:00 27 17 Nordeste 28 Nordeste 0 -- -- 32
2019-06-04 11:00:00 25.8 12 Este 17 Nordeste 0 -- -- 36
2019-06-04 10:00:00 22.9 11 Este 15 Este 0 -- -- 43
2019-06-04 09:00:00 20.6 3 Este 12 Este 0 -- -- 49
2019-06-04 08:00:00 21.2 0 Calma 9 Este 0 -- -- 41
2019-06-04 07:00:00 20.8 3 Nordeste 8 Este 0 -- -- 39
2019-06-04 06:00:00 20.9 3 Oeste 17 Oeste 0 -- -- 38
2019-06-04 05:00:00 21.8 5 Oeste 31 Sudoeste 0 -- -- 36
2019-06-04 04:00:00 22 23 Oeste 35 Sudoeste 0 -- -- 37
2019-06-04 03:00:00 21.5 23 Sudoeste 30 Sudoeste 0 -- -- 40
2019-06-04 02:00:00 21.8 17 Sudoeste 27 Sudoeste 0 -- -- 40
2019-06-04 01:00:00 18.9 17 Sudoeste 24 Sudoeste 0 -- -- 49
2019-06-04 00:00:00 20.2 15 Sur 24 Sur 0 -- -- 46
2019-06-03 23:00:00 22.8 20 Sur 30 Sur 0 -- -- 42
2019-06-03 22:00:00 23.7 18 Sur 31 Sur 0 -- -- 41
2019-06-03 21:00:00 25.3 20 Sur 32 Sur 0 -- -- 38
2019-06-03 20:00:00 26.8 18 Sur 37 Sur 0 -- -- 35
2019-06-03 19:00:00 27.5 22 Sur 36 Sur 0 -- -- 37
2019-06-03 18:00:00 27.7 20 Sudeste 36 Sudeste 0 -- -- 31
2019-06-03 17:00:00 27.5 19 Este 35 Sur 0 -- -- 33
2019-06-03 16:00:00 26.2 14 Este 50 Sudoeste 0 -- -- 35
2019-06-03 15:00:00 26.9 20 Este 33 Este 0 -- -- 31
2019-06-03 14:00:00 28.1 22 Este 30 Este 0 -- -- 31
2019-06-03 13:00:00 25.9 11 Este 24 Nordeste 0 -- -- 35
2019-06-03 12:00:00 24.5 13 Nordeste 20 Nordeste 0 -- -- 40
2019-06-03 11:00:00 24 13 Nordeste 24 Norte 0 -- -- 42
2019-06-03 10:00:00 23.6 6 Este 11 Nordeste 0 -- -- 37
2019-06-03 09:00:00 22.3 3 Sudeste 14 Sudoeste 0 -- -- 39
2019-06-03 08:00:00 18.9 5 Sur 13 Sur 0 -- -- 43
2019-06-03 07:00:00 19.2 4 Sudeste 10 Sudoeste 0 -- -- 39
2019-06-03 06:00:00 19.2 7 Sur 16 Sur 0 -- -- 42
2019-06-03 05:00:00 19.8 8 Sur 19 Sur 0 -- -- 40
2019-06-03 04:00:00 20.3 18 Sur 22 Sur 0 -- -- 40
2019-06-03 03:00:00 18.1 8 Sudoeste 28 Noroeste 0 -- -- 49
2019-06-03 02:00:00 21 13 Oeste 23 Noroeste 0 -- -- 41
2019-06-03 01:00:00 22.3 18 Sur 24 Sur 0 -- -- 38
2019-06-03 00:00:00 21.7 17 Sur 21 Sur 0 -- -- 39
2019-06-02 23:00:00 24 14 Sur 21 Sur 0 -- -- 35
2019-06-02 22:00:00 24.9 15 Sur 24 Sur 0 -- -- 32
2019-06-02 21:00:00 26.4 15 Sur 29 Sudeste 0 -- -- 30
2019-06-02 20:00:00 27.8 13 Sudeste 31 Este 0 -- -- 29
2019-06-02 19:00:00 28.7 12 Sudeste 37 Este 0 -- -- 30
2019-06-02 18:00:00 29.7 21 Este 36 Este 0 -- -- 23
2019-06-02 17:00:00 29.6 20 Nordeste 34 Este 0 -- -- 25
2019-06-02 16:00:00 29.6 15 Este 32 Nordeste 0 -- -- 26
2019-06-02 15:00:00 28.8 13 Este 27 Nordeste 0 -- -- 29
2019-06-02 14:00:00 28.4 16 Nordeste 29 Nordeste 0 -- -- 30
2019-06-02 13:00:00 27.9 17 Nordeste 26 Nordeste 0 -- -- 33
2019-06-02 12:00:00 27.5 4 Norte 13 Oeste 0 -- -- 33
2019-06-02 11:00:00 24.3 5 Sudoeste 9 Sudoeste 0 -- -- 39
2019-06-02 10:00:00 23 5 Este 12 Este 0 -- -- 43
2019-06-02 09:00:00 20.8 5 Este 11 Oeste 0 -- -- 48
2019-06-02 08:00:00 17.8 9 Oeste 12 Sudoeste 0 -- -- 50
2019-06-02 07:00:00 17.1 10 Oeste 16 Oeste 0 -- -- 52
2019-06-02 06:00:00 17.2 15 Oeste 24 Oeste 0 -- -- 52
2019-06-02 05:00:00 17.6 16 Oeste 23 Oeste 0 -- -- 53
2019-06-02 04:00:00 17.6 18 Sudoeste 25 Oeste 0 -- -- 55
2019-06-02 03:00:00 17.1 21 Sur 23 Sur 0 -- -- 55
2019-06-02 02:00:00 17.1 21 Sur 23 Sur 0 -- -- 52
2019-06-02 01:00:00 17.8 14 Sudoeste 20 Sur 0 -- -- 51
2019-06-02 00:00:00 19.7 16 Sudoeste 22 Sur 0 -- -- 47
2019-06-01 23:00:00 20.5 19 Sur 24 Sur 0 -- -- 45
2019-06-01 22:00:00 21.9 16 Sur 27 Sudeste 0 -- -- 42
2019-06-01 21:00:00 23.6 14 Este 33 Este 0 -- -- 39
2019-06-01 20:00:00 25.6 15 Este 46 Este 0 -- -- 37
2019-06-01 19:00:00 27 24 Este 37 Este 0 -- -- 31
2019-06-01 18:00:00 27.5 12 Este 33 Nordeste 0 -- -- 28
2019-06-01 17:00:00 27.9 16 Nordeste 32 Este 0 -- -- 28
2019-06-01 16:00:00 27.7 19 Este 32 Este 0 -- -- 28
2019-06-01 15:00:00 27.4 9 Nordeste 26 Este 0 -- -- 32
2019-06-01 14:00:00 26.5 15 Este 28 Este 0 -- -- 37
2019-06-01 13:00:00 25.6 13 Nordeste 21 Este 0 -- -- 39
2019-06-01 12:00:00 24.4 8 Nordeste 21 Este 0 -- -- 42
2019-06-01 11:00:00 23.2 9 Nordeste 18 Nordeste 0 -- -- 45
2019-06-01 10:00:00 20.4 4 Oeste 10 Noroeste 0 -- -- 48
2019-06-01 09:00:00 17.8 7 Sur 10 Sudoeste 0 -- -- 57
2019-06-01 08:00:00 15.7 10 Sudoeste 13 Oeste 0 -- -- 63
2019-06-01 07:00:00 15.3 11 Oeste 19 Oeste 0 -- -- 64
2019-06-01 06:00:00 15.2 16 Oeste 21 Oeste 0 -- -- 64
2019-06-01 05:00:00 15.5 16 Oeste 20 Oeste 0 -- -- 64
2019-06-01 04:00:00 15.7 18 Sudoeste 21 Sudoeste 0 -- -- 66
2019-06-01 03:00:00 15.9 18 Sudoeste 19 Sur 0 -- -- 65
2019-06-01 02:00:00 16.9 13 Sudoeste 21 Sur 0 -- -- 62
2019-06-01 01:00:00 18.1 18 Sur 20 Sur 0 -- -- 58
2019-06-01 00:00:00 19.6 17 Sur 22 Sur 0 -- -- 54
2019-05-31 23:00:00 21 16 Sur 21 Sur 0 -- -- 50
2019-05-31 22:00:00 22 12 Sur 19 Sudeste 0 -- -- 46
2019-05-31 21:00:00 23.8 13 Este 19 Este 0 -- -- 43
2019-05-31 20:00:00 24.7 15 Nordeste 25 Este 0 -- -- 29
2019-05-31 19:00:00 25 14 Nordeste 29 Este 0 -- -- 32
2019-05-31 18:00:00 25.4 13 Nordeste 25 Nordeste 0 -- -- 32
2019-05-31 17:00:00 25.4 10 Sudeste 26 Nordeste 0 -- -- 35
2019-05-31 16:00:00 26 10 Nordeste 24 Nordeste 0 -- -- 35
2019-05-31 15:00:00 25 13 Este 26 Nordeste 0 -- -- 37
2019-05-31 14:00:00 24.3 12 Nordeste 22 Nordeste 0 -- -- 38
2019-05-31 13:00:00 23.1 10 Este 19 Nordeste 0 -- -- 42
2019-05-31 12:00:00 21.7 9 Este 25 Nordeste 0 -- -- 47
2019-05-31 11:00:00 21 13 Nordeste 22 Nordeste 0 -- -- 50
2019-05-31 10:00:00 20.1 12 Norte 20 Noroeste 0 -- -- 51
2019-05-31 09:00:00 16.8 13 Noroeste 19 Noroeste 0 -- -- 59
2019-05-31 08:00:00 14 12 Sudoeste 20 Oeste 0 -- -- 58
2019-05-31 07:00:00 12.5 13 Oeste 23 Oeste 0 -- -- 62
2019-05-31 06:00:00 13.3 17 Oeste 20 Oeste 0 -- -- 58
2019-05-31 05:00:00 14.3 14 Oeste 16 Sudoeste 0 -- -- 54
2019-05-31 04:00:00 15.2 14 Oeste 21 Oeste 0 -- -- 52
2019-05-31 03:00:00 15.9 19 Oeste 23 Oeste 0 -- -- 50
2019-05-31 02:00:00 16 18 Oeste 23 Oeste 0 -- -- 50
2019-05-31 01:00:00 16.6 21 Oeste 27 Oeste 0 -- -- 48
2019-05-31 00:00:00 19.3 12 Sudoeste 14 Sudoeste 0 -- -- 41
2019-05-30 23:00:00 20.6 7 Oeste 8 Oeste 0 -- -- 38
2019-05-30 22:00:00 21.2 4 Noroeste 10 Norte 0 -- -- 37
2019-05-30 21:00:00 22.6 8 Norte 15 Norte 0 -- -- 36
2019-05-30 20:00:00 23.5 11 Norte 21 Nordeste 0 -- -- 34
2019-05-30 19:00:00 24 11 Norte 24 Noroeste 0 -- -- 33
2019-05-30 18:00:00 25 14 Norte 25 Norte 0 -- -- 31
2019-05-30 17:00:00 24.8 11 Norte 28 Nordeste 0 -- -- 33
2019-05-30 16:00:00 24.1 8 Nordeste 21 Noroeste 0 -- -- 36
2019-05-30 15:00:00 22.5 9 Nordeste 23 Noroeste 0 -- -- 38
2019-05-30 14:00:00 22.2 10 Noroeste 24 Noroeste 0 -- -- 40
2019-05-30 13:00:00 20.5 8 Oeste 24 Oeste 0 -- -- 43
2019-05-30 12:00:00 18.9 16 Oeste 29 Oeste 0 -- -- 45
2019-05-30 11:00:00 17.2 20 Oeste 29 Oeste 0 -- -- 50
2019-05-30 10:00:00 15 18 Oeste 25 Oeste 0 -- -- 56
2019-05-30 09:00:00 13 11 Oeste 19 Oeste 0 -- -- 63
2019-05-30 08:00:00 10.8 12 Sudoeste 21 Oeste 0 -- -- 68
2019-05-30 07:00:00 9.7 20 Oeste 30 Oeste 0 -- -- 72
2019-05-30 06:00:00 10.2 17 Oeste 24 Sudoeste 0 -- -- 70
2019-05-30 05:00:00 10.1 20 Oeste 29 Oeste 0 -- -- 72
2019-05-30 04:00:00 10.4 21 Oeste 28 Oeste 0 -- -- 74
2019-05-30 03:00:00 10.5 18 Oeste 33 Oeste 0 -- -- 74
2019-05-30 02:00:00 11 19 Oeste 32 Oeste 0 -- -- 72
2019-05-30 01:00:00 11.4 19 Oeste 29 Oeste 0 -- -- 70
2019-05-30 00:00:00 12.6 18 Oeste 41 Noroeste 0 -- -- 65
2019-05-29 23:00:00 13.4 30 Oeste 46 Noroeste 0 -- -- 61
2019-05-29 22:00:00 14.1 22 Noroeste 48 Oeste 0 -- -- 57
2019-05-29 21:00:00 15.8 30 Noroeste 48 Noroeste 0 -- -- 51
2019-05-29 20:00:00 17.3 37 Noroeste 51 Noroeste 0 -- -- 47
2019-05-29 19:00:00 18.2 35 Noroeste 52 Oeste 0 -- -- 42
2019-05-29 18:00:00 18.8 32 Noroeste 53 Oeste 0 -- -- 39
2019-05-29 17:00:00 18.2 35 Noroeste 51 Noroeste 0 -- -- 40
2019-05-29 16:00:00 17.8 35 Noroeste 62 Noroeste 0 -- -- 40
2019-05-29 15:00:00 17.1 38 Noroeste 55 Noroeste 0 -- -- 43
2019-05-29 14:00:00 16.3 35 Noroeste 59 Noroeste 0 -- -- 47
2019-05-29 13:00:00 14.8 42 Noroeste 60 Noroeste 0 -- -- 53
2019-05-29 12:00:00 13.8 36 Noroeste 59 Noroeste 0 -- -- 54
2019-05-29 11:00:00 13.3 36 Noroeste 61 Noroeste 0 -- -- 55
2019-05-29 10:00:00 11.8 40 Noroeste 61 Oeste 0 -- -- 63
2019-05-29 09:00:00 10.5 41 Noroeste 58 Noroeste 0 -- -- 66
2019-05-29 08:00:00 9.1 35 Oeste 52 Oeste 0 -- -- 69
2019-05-29 07:00:00 8.2 35 Oeste 63 Oeste 0 -- -- 71
2019-05-29 06:00:00 8.5 40 Noroeste 62 Noroeste 0 -- -- 72
2019-05-29 05:00:00 8.3 37 Oeste 55 Noroeste 0 -- -- 71
2019-05-29 04:00:00 8.5 40 Oeste 62 Oeste 0 -- -- 70
2019-05-29 03:00:00 8.9 42 Oeste 59 Oeste 0 -- -- 68
2019-05-29 02:00:00 9.4 48 Oeste 85 Oeste 0 -- -- 64
2019-05-29 01:00:00 10.1 62 Noroeste 80 Noroeste 0 -- -- 63
2019-05-29 00:00:00 10.2 51 Noroeste 82 Oeste 0 -- -- 65
2019-05-28 23:00:00 10.9 56 Oeste 74 Noroeste 0 -- -- 57
2019-05-28 22:00:00 11.4 50 Oeste 70 Noroeste 0 -- -- 59
2019-05-28 21:00:00 12.9 55 Noroeste 75 Noroeste 0 -- -- 56
2019-05-28 20:00:00 14.2 59 Noroeste 77 Noroeste 0 -- -- 54
2019-05-28 19:00:00 15.7 54 Noroeste 84 Noroeste 0 -- -- 49
2019-05-28 18:00:00 16.7 49 Noroeste 71 Noroeste 0 -- -- 45
2019-05-28 17:00:00 17.1 42 Noroeste 65 Noroeste 0 -- -- 44
2019-05-28 16:00:00 17 48 Noroeste 77 Noroeste 0 -- -- 46
2019-05-28 15:00:00 16.8 50 Noroeste 68 Noroeste 0 -- -- 47
2019-05-28 14:00:00 16.2 44 Noroeste 64 Noroeste 0 -- -- 48
2019-05-28 13:00:00 15.3 46 Noroeste 64 Noroeste 0 -- -- 45
2019-05-28 12:00:00 14.7 39 Noroeste 70 Noroeste 0 -- -- 49
2019-05-28 11:00:00 12.4 49 Noroeste 72 Noroeste 0 -- -- 55
2019-05-28 10:00:00 11.3 36 Noroeste 55 Oeste 0 -- -- 60
2019-05-28 09:00:00 10.1 48 Oeste 65 Oeste 0 -- -- 64
2019-05-28 08:00:00 8.9 39 Oeste 53 Oeste 0 -- -- 71
2019-05-28 07:00:00 8.2 24 Oeste 44 Oeste 0 -- -- 74
2019-05-28 06:00:00 8.5 33 Oeste 44 Oeste 0 -- -- 74
2019-05-28 05:00:00 9 28 Oeste 46 Oeste 0 -- -- 74
2019-05-28 04:00:00 9.4 39 Oeste 53 Oeste 0 -- -- 74
2019-05-28 03:00:00 9.9 31 Oeste 50 Oeste 0 -- -- 71
2019-05-28 02:00:00 10.5 40 Oeste 58 Oeste 0 -- -- 73
2019-05-28 01:00:00 11.8 38 Oeste 60 Oeste 0 -- -- 72
2019-05-28 00:00:00 13.2 30 Oeste 56 Oeste 0 -- -- 71
2019-05-27 23:00:00 14.3 31 Oeste 56 Oeste 0 -- -- 69
2019-05-27 22:00:00 15.5 30 Oeste 54 Noroeste 0 -- -- 65
2019-05-27 21:00:00 17.2 32 Oeste 53 Noroeste 0 -- -- 60
2019-05-27 20:00:00 17.9 39 Noroeste 58 Noroeste 0 -- -- 57
2019-05-27 19:00:00 20.6 33 Noroeste 49 Noroeste 0 -- -- 49
2019-05-27 18:00:00 21.7 35 Noroeste 52 Oeste 0 -- -- 45
2019-05-27 17:00:00 22.5 27 Noroeste 51 Noroeste 0 -- -- 46
2019-05-27 16:00:00 21.3 35 Noroeste 52 Noroeste 0 -- -- 49
2019-05-27 15:00:00 19.2 26 Noroeste 39 Noroeste 0 -- -- 52
2019-05-27 14:00:00 19.7 21 Noroeste 38 Noroeste 0 -- -- 54
2019-05-27 13:00:00 18.4 22 Noroeste 36 Noroeste 0 -- -- 56
2019-05-27 12:00:00 16.7 19 Noroeste 32 Oeste 0 -- -- 61
2019-05-27 11:00:00 14.4 19 Oeste 36 Oeste 0 -- -- 68
2019-05-27 10:00:00 11.7 27 Oeste 43 Oeste 0 -- -- 78
2019-05-27 09:00:00 10.6 27 Oeste 39 Oeste 0 -- -- 84
2019-05-27 08:00:00 9.9 26 Oeste 40 Oeste 0 -- -- 87
2019-05-27 07:00:00 9.1 28 Oeste 36 Oeste 0 -- -- 91
2019-05-27 06:00:00 9.1 30 Oeste 39 Oeste 0 -- -- 90
2019-05-27 05:00:00 9.3 27 Oeste 37 Oeste 0 -- -- 89
2019-05-27 04:00:00 9.8 29 Oeste 38 Oeste 0 -- -- 87
2019-05-27 03:00:00 10 20 Oeste 25 Oeste 0 -- -- 86
2019-05-27 02:00:00 10.6 16 Oeste 23 Oeste 0 -- -- 84
2019-05-27 01:00:00 10.9 15 Oeste 26 Oeste 0 -- -- 82
2019-05-27 00:00:00 11.4 16 Oeste 30 Oeste 0 -- -- 78
2019-05-26 23:00:00 12.4 21 Oeste 42 Noroeste 0 -- -- 73
2019-05-26 22:00:00 13.5 30 Noroeste 48 Noroeste 0 -- -- 68
2019-05-26 21:00:00 15.5 29 Noroeste 45 Noroeste 0 -- -- 60
2019-05-26 20:00:00 17.3 32 Noroeste 43 Noroeste 0 -- -- 56
2019-05-26 19:00:00 17.9 31 Noroeste 44 Noroeste 0 -- -- 53
2019-05-26 18:00:00 18.6 29 Noroeste 45 Noroeste 0 -- -- 52
2019-05-26 17:00:00 18.7 31 Noroeste 48 Oeste 0 -- -- 51
2019-05-26 16:00:00 18.3 29 Noroeste 42 Noroeste 0 -- -- 52
2019-05-26 15:00:00 17.6 27 Noroeste 48 Noroeste 0 -- -- 52
2019-05-26 14:00:00 16.6 30 Noroeste 49 Noroeste 0 -- -- 57
2019-05-26 13:00:00 15.5 24 Noroeste 38 Noroeste 0 -- -- 61
2019-05-26 12:00:00 14.3 25 Oeste 30 Oeste 0 -- -- 62
2019-05-26 11:00:00 13.1 21 Oeste 31 Noroeste 0 -- -- 66
2019-05-26 10:00:00 11.3 19 Oeste 30 Oeste 0 -- -- 72
2019-05-26 09:00:00 10.4 21 Oeste 32 Oeste 0 -- -- 75
2019-05-26 08:00:00 8.6 21 Oeste 27 Oeste 0 -- -- 81
2019-05-26 07:00:00 7.4 19 Oeste 26 Oeste 0 -- -- 85
2019-05-26 06:00:00 7.4 19 Oeste 25 Oeste 0 -- -- 86
2019-05-26 05:00:00 7.8 19 Oeste 31 Oeste 0 -- -- 85
2019-05-26 04:00:00 8.3 25 Oeste 35 Oeste 0 -- -- 85
2019-05-26 03:00:00 8.9 21 Oeste 30 Oeste 0 -- -- 84
2019-05-26 02:00:00 9.3 18 Oeste 33 Oeste 0 -- -- 83
2019-05-26 01:00:00 9.8 25 Oeste 37 Oeste 0 -- -- 82
2019-05-26 00:00:00 10.5 24 Oeste 31 Oeste 0 -- -- 80
2019-05-25 23:00:00 11.5 23 Oeste 49 Oeste 0 -- -- 77
2019-05-25 22:00:00 12.7 28 Noroeste 50 Oeste 0 -- -- 72
2019-05-25 21:00:00 14.1 37 Noroeste 55 Noroeste 0 -- -- 67
2019-05-25 20:00:00 16.2 40 Noroeste 55 Noroeste 0 -- -- 59
2019-05-25 19:00:00 17.5 41 Noroeste 54 Noroeste 0 -- -- 56
2019-05-25 18:00:00 17.9 36 Noroeste 51 Oeste 0 -- -- 55
2019-05-25 17:00:00 18 35 Noroeste 55 Noroeste 0 -- -- 55
2019-05-25 16:00:00 18.2 36 Noroeste 54 Noroeste 0 -- -- 54
2019-05-25 15:00:00 17.6 32 Noroeste 46 Noroeste 0 -- -- 60
2019-05-25 14:00:00 16.7 28 Noroeste 43 Noroeste 0 -- -- 63
2019-05-25 13:00:00 15.6 32 Noroeste 44 Oeste 0 -- -- 66
2019-05-25 12:00:00 14.2 29 Noroeste 50 Noroeste 0 -- -- 71
2019-05-25 11:00:00 12.4 32 Noroeste 49 Noroeste 0 -- -- 75
2019-05-25 10:00:00 11.6 36 Noroeste 52 Noroeste 0 -- -- 78
2019-05-25 09:00:00 10.3 38 Noroeste 54 Noroeste 0 -- -- 83
2019-05-25 08:00:00 9.8 37 Noroeste 58 Noroeste 0 -- -- 84
2019-05-25 07:00:00 9.5 36 Noroeste 50 Noroeste 0 -- -- 84
2019-05-25 06:00:00 9.6 31 Noroeste 45 Noroeste 0 -- -- 85
2019-05-25 05:00:00 9.6 33 Noroeste 53 Noroeste 0 -- -- 85
2019-05-25 04:00:00 9.7 33 Oeste 57 Noroeste 0 -- -- 86
2019-05-25 03:00:00 9.8 32 Noroeste 45 Noroeste 0 -- -- 87
2019-05-25 02:00:00 10 33 Noroeste 47 Noroeste 0 -- -- 88
2019-05-25 01:00:00 10.3 36 Noroeste 52 Noroeste 0 -- -- 88
2019-05-25 00:00:00 10.6 36 Noroeste 55 Noroeste 0 -- -- 86
2019-05-24 23:00:00 11 36 Noroeste 54 Noroeste 0 -- -- 85
2019-05-24 22:00:00 11.2 36 Noroeste 51 Noroeste 0 -- -- 84
2019-05-24 21:00:00 11.5 30 Noroeste 46 Noroeste 0.2 -- -- 86
2019-05-24 20:00:00 11.4 31 Noroeste 39 Noroeste 1.6 -- -- 90
2019-05-24 19:00:00 12.5 22 Noroeste 52 Noroeste 0 -- -- 86
2019-05-24 18:00:00 13.9 34 Noroeste 49 Oeste 0 -- -- 74
2019-05-24 17:00:00 13.9 26 Noroeste 43 Oeste 0 -- -- 77
2019-05-24 16:00:00 12.8 26 Noroeste 42 Noroeste 0 -- -- 83
2019-05-24 15:00:00 12.6 25 Noroeste 41 Oeste 0 -- -- 89
2019-05-24 14:00:00 11.6 22 Oeste 35 Oeste 0.2 -- -- 95
2019-05-24 13:00:00 10.7 23 Oeste 36 Noroeste 2 -- -- 98
2019-05-24 12:00:00 10.4 26 Noroeste 35 Noroeste 7 -- -- 97
2019-05-24 11:00:00 10.2 25 Noroeste 38 Noroeste 0.4 -- -- 97
2019-05-24 10:00:00 10.3 21 Noroeste 36 Oeste 0.6 -- -- 96
2019-05-24 09:00:00 10.2 23 Noroeste 40 Oeste 2.2 -- -- 96
2019-05-24 08:00:00 10.7 26 Noroeste 35 Noroeste 0.4 -- -- 95
2019-05-24 07:00:00 11.5 19 Oeste 25 Noroeste 0 -- -- 94
2019-05-24 06:00:00 11.6 22 Oeste 35 Noroeste 0 -- -- 92
2019-05-24 05:00:00 11.6 23 Noroeste 32 Noroeste 0 -- -- 90
2019-05-24 04:00:00 12.8 17 Norte 23 Norte 0 -- -- 92
2019-05-24 03:00:00 13.5 8 Sudoeste 26 Este 0.4 -- -- 88
2019-05-24 02:00:00 14.3 17 Este 24 Oeste 0.6 -- -- 87
2019-05-24 01:00:00 15.7 9 Oeste 23 Noroeste 0 -- -- 74
2019-05-24 00:00:00 17.4 9 Norte 42 Oeste 0.4 -- -- 59
2019-05-23 23:00:00 16.7 46 Oeste 57 Oeste 0 -- -- 75
2019-05-23 22:00:00 20.1 19 Norte 26 Norte 0 -- -- 43
2019-05-23 21:00:00 22.2 12 Norte 20 Nordeste 0 -- -- 36
2019-05-23 20:00:00 23.8 12 Este 18 Este 0 -- -- 32
2019-05-23 19:00:00 24 12 Este 15 Nordeste 0 -- -- 31
2019-05-23 18:00:00 23.8 9 Nordeste 21 Nordeste 0 -- -- 31
2019-05-23 17:00:00 24.7 13 Nordeste 24 Nordeste 0 -- -- 31
2019-05-23 16:00:00 24.9 13 Nordeste 31 Nordeste 0 -- -- 31
2019-05-23 15:00:00 24.4 14 Nordeste 25 Nordeste 0 -- -- 31
2019-05-23 14:00:00 24.8 16 Nordeste 24 Nordeste 0 -- -- 29
2019-05-23 13:00:00 23.9 10 Este 24 Este 0 -- -- 32
2019-05-23 12:00:00 22.8 11 Nordeste 20 Nordeste 0 -- -- 36
2019-05-23 11:00:00 21.4 8 Nordeste 17 Nordeste 0 -- -- 42
2019-05-23 10:00:00 19.8 7 Nordeste 13 Nordeste 0 -- -- 50
2019-05-23 09:00:00 17.2 3 Oeste 15 Oeste 0 -- -- 63
2019-05-23 08:00:00 14.6 12 Oeste 20 Oeste 0 -- -- 69
2019-05-23 07:00:00 13.9 16 Oeste 21 Oeste 0 -- -- 68
2019-05-23 06:00:00 14.7 14 Oeste 20 Oeste 0 -- -- 65
2019-05-23 05:00:00 14.3 16 Oeste 22 Oeste 0 -- -- 56
2019-05-23 04:00:00 14.5 18 Oeste 22 Oeste 0 -- -- 47
2019-05-23 03:00:00 15 17 Oeste 21 Oeste 0 -- -- 45
2019-05-23 02:00:00 15.5 14 Oeste 15 Oeste 0 -- -- 42
2019-05-23 01:00:00 17.6 12 Sur 14 Sur 0 -- -- 43
2019-05-23 00:00:00 19.4 5 Sudeste 7 Este 0 -- -- 32
2019-05-22 23:00:00 19.3 7 Sudeste 14 Sur 0 -- -- 32
2019-05-22 22:00:00 19 9 Nordeste 14 Nordeste 0 -- -- 33
2019-05-22 21:00:00 20 13 Nordeste 21 Nordeste 0 -- -- 32
2019-05-22 20:00:00 21.1 16 Nordeste 31 Nordeste 0 -- -- 32
2019-05-22 19:00:00 21.6 15 Nordeste 30 Nordeste 0 -- -- 35
2019-05-22 18:00:00 23.1 15 Norte 28 Norte 0 -- -- 34
2019-05-22 17:00:00 24.3 18 Noroeste 33 Noroeste 0 -- -- 32
2019-05-22 16:00:00 23 11 Norte 39 Nordeste 0 -- -- 35
2019-05-22 15:00:00 21.5 19 Nordeste 32 Norte 0 -- -- 37
2019-05-22 14:00:00 21.1 11 Norte 26 Nordeste 0 -- -- 37
2019-05-22 13:00:00 20.1 15 Nordeste 24 Nordeste 0 -- -- 37
2019-05-22 12:00:00 19 7 Nordeste 20 Nordeste 0 -- -- 38
2019-05-22 11:00:00 17.6 9 Nordeste 17 Nordeste 0 -- -- 39
2019-05-22 10:00:00 14.7 6 Oeste 14 Oeste 0 -- -- 46
2019-05-22 09:00:00 12.8 5 Sudoeste 8 Sudoeste 0 -- -- 48
2019-05-22 08:00:00 11.5 4 Oeste 6 Oeste 0 -- -- 47
2019-05-22 07:00:00 10.8 5 Oeste 12 Oeste 0 -- -- 47
2019-05-22 06:00:00 10.6 10 Oeste 14 Oeste 0 -- -- 47
2019-05-22 05:00:00 11.2 10 Oeste 21 Oeste 0 -- -- 46
2019-05-22 04:00:00 11.2 10 Oeste 23 Sur 0 -- -- 45
2019-05-22 03:00:00 11.8 13 Sudoeste 24 Oeste 0 -- -- 45
2019-05-22 02:00:00 12 21 Oeste 29 Oeste 0 -- -- 50
2019-05-22 01:00:00 12.9 24 Oeste 29 Oeste 0 -- -- 47
2019-05-22 00:00:00 14.8 17 Oeste 26 Noroeste 0 -- -- 35
2019-05-21 23:00:00 16.4 17 Noroeste 22 Noroeste 0 -- -- 32
2019-05-21 22:00:00 17.1 16 Noroeste 22 Noroeste 0 -- -- 28
2019-05-21 21:00:00 18.3 10 Norte 21 Norte 0 -- -- 23
2019-05-21 20:00:00 19.1 15 Norte 25 Noroeste 0 -- -- 28
2019-05-21 19:00:00 19.9 11 Norte 27 Nordeste 0 -- -- 30
2019-05-21 18:00:00 20.3 15 Nordeste 31 Nordeste 0 -- -- 31
2019-05-21 17:00:00 20.2 19 Nordeste 31 Norte 0 -- -- 31
2019-05-21 16:00:00 20.8 14 Norte 28 Norte 0 -- -- 36
2019-05-21 15:00:00 19.6 17 Nordeste 27 Nordeste 0 -- -- 39
2019-05-21 14:00:00 19.3 14 Norte 30 Nordeste 0 -- -- 42
2019-05-21 13:00:00 17.8 11 Nordeste 24 Nordeste 0 -- -- 43
2019-05-21 12:00:00 16.9 10 Nordeste 19 Nordeste 0 -- -- 44
2019-05-21 11:00:00 15.2 8 Norte 18 Nordeste 0 -- -- 49
2019-05-21 10:00:00 14.1 8 Nordeste 15 Nordeste 0 -- -- 54
2019-05-21 09:00:00 11.9 0 Calma 8 Sudeste 0 -- -- 61
2019-05-21 08:00:00 11.1 5 Este 9 Este 0 -- -- 64
2019-05-21 07:00:00 10.1 8 Nordeste 10 Oeste 0 -- -- 66
2019-05-21 06:00:00 9.4 10 Oeste 17 Oeste 0 -- -- 69
2019-05-21 05:00:00 9.1 15 Oeste 19 Oeste 0 -- -- 71
2019-05-21 04:00:00 9.7 15 Oeste 18 Oeste 0 -- -- 69
2019-05-21 03:00:00 9.8 13 Sudoeste 24 Oeste 0 -- -- 67
2019-05-21 02:00:00 10.2 21 Oeste 23 Oeste 0 -- -- 66
2019-05-21 01:00:00 11.8 18 Oeste 21 Oeste 0 -- -- 59
2019-05-21 00:00:00 12.9 17 Noroeste 19 Noroeste 0 -- -- 55